KCEW/CEW METAR and TAF weather

Enter ICAO airport designator
Station Type Date Time Source
KCEW METAR 2020/01/22 14:53 UTC NOAA

KCEW 221453Z AUTO 06006KT 10SM CLR 03/M06 A3036 RMK AO2 SLP282 T00281061 51004


Station Type Date Time Source
KCEW Decoded METAR 2020/01/22 14:53 UTC NOAA

CRESTVIEW SIKES AIRPORT, FL, United States (KCEW) 30-46N 086-31W 55M
Jan 22, 2020 - 09:53 AM EST / 2020.01.22 1453 UTC
Wind: from the ENE (060 degrees) at 7 MPH (6 KT):0
Visibility: 10 mile(s):0
Sky conditions: clear
Temperature: 37.0 F (2.8 C)
Dew Point: 21.0 F (-6.1 C)
Relative Humidity: 51%
Pressure (altimeter): 30.36 in. Hg (1028 hPa)
Pressure tendency: 0.01 inches (0.4 hPa) higher than three hours ago
ob: KCEW 221453Z AUTO 06006KT 10SM CLR 03/M06 A3036 RMK AO2 SLP282 T00281061 51004
cycle: 15

Station Type Date Time Source
KCEW TAF UTC NOAA

Error!

Example: see airport list